sensor_id;sensor_type;location;lat;lon;timestamp;temperature;humidity
70271;SHT31;57680;54.292;18.598;2024-01-30T00:00:41;1.11;92.23
70271;SHT31;57680;54.292;18.598;2024-01-30T00:03:06;1.08;92.51
70271;SHT31;57680;54.292;18.598;2024-01-30T00:05:31;1.13;92.85
70271;SHT31;57680;54.292;18.598;2024-01-30T00:07:57;1.11;92.59
70271;SHT31;57680;54.292;18.598;2024-01-30T00:10:22;1.13;92.53
70271;SHT31;57680;54.292;18.598;2024-01-30T00:12:48;1.11;92.43
70271;SHT31;57680;54.292;18.598;2024-01-30T00:15:13;1.20;92.71
70271;SHT31;57680;54.292;18.598;2024-01-30T00:17:39;1.24;92.36
70271;SHT31;57680;54.292;18.598;2024-01-30T00:20:04;1.28;92.51
70271;SHT31;57680;54.292;18.598;2024-01-30T00:22:30;1.32;91.89
70271;SHT31;57680;54.292;18.598;2024-01-30T00:24:55;1.35;91.94
70271;SHT31;57680;54.292;18.598;2024-01-30T00:27:20;1.38;91.81
70271;SHT31;57680;54.292;18.598;2024-01-30T00:29:46;1.30;91.44
70271;SHT31;57680;54.292;18.598;2024-01-30T00:32:11;1.26;91.53
70271;SHT31;57680;54.292;18.598;2024-01-30T00:34:36;1.13;91.53
70271;SHT31;57680;54.292;18.598;2024-01-30T00:37:02;1.10;91.70
70271;SHT31;57680;54.292;18.598;2024-01-30T00:39:27;1.01;91.74
70271;SHT31;57680;54.292;18.598;2024-01-30T00:41:52;0.90;91.88
70271;SHT31;57680;54.292;18.598;2024-01-30T00:44:17;0.80;92.13
70271;SHT31;57680;54.292;18.598;2024-01-30T00:46:43;0.72;92.53
70271;SHT31;57680;54.292;18.598;2024-01-30T00:49:08;0.63;92.69
70271;SHT31;57680;54.292;18.598;2024-01-30T00:51:33;0.56;93.04
70271;SHT31;57680;54.292;18.598;2024-01-30T00:53:59;0.48;93.28
70271;SHT31;57680;54.292;18.598;2024-01-30T00:56:24;0.44;93.56
70271;SHT31;57680;54.292;18.598;2024-01-30T00:58:49;0.41;93.89
70271;SHT31;57680;54.292;18.598;2024-01-30T01:01:15;0.37;93.93
70271;SHT31;57680;54.292;18.598;2024-01-30T01:03:40;0.31;94.12
70271;SHT31;57680;54.292;18.598;2024-01-30T01:06:05;0.26;94.34
70271;SHT31;57680;54.292;18.598;2024-01-30T01:08:31;0.25;94.43
70271;SHT31;57680;54.292;18.598;2024-01-30T01:10:56;0.21;94.36
70271;SHT31;57680;54.292;18.598;2024-01-30T01:13:21;0.19;94.87
70271;SHT31;57680;54.292;18.598;2024-01-30T01:15:47;0.15;94.79
70271;SHT31;57680;54.292;18.598;2024-01-30T01:18:12;0.12;95.16
70271;SHT31;57680;54.292;18.598;2024-01-30T01:20:37;0.10;95.30
70271;SHT31;57680;54.292;18.598;2024-01-30T01:23:03;0.07;95.70
70271;SHT31;57680;54.292;18.598;2024-01-30T01:25:28;0.04;95.84
70271;SHT31;57680;54.292;18.598;2024-01-30T01:27:53;0.02;95.92
70271;SHT31;57680;54.292;18.598;2024-01-30T01:30:18;-0.03;95.98
70271;SHT31;57680;54.292;18.598;2024-01-30T01:32:44;-0.07;96.21
70271;SHT31;57680;54.292;18.598;2024-01-30T01:35:09;-0.07;96.44
70271;SHT31;57680;54.292;18.598;2024-01-30T01:37:34;-0.10;96.46
70271;SHT31;57680;54.292;18.598;2024-01-30T01:40:00;-0.17;96.43
70271;SHT31;57680;54.292;18.598;2024-01-30T01:42:25;-0.19;96.61
70271;SHT31;57680;54.292;18.598;2024-01-30T01:44:50;-0.24;96.64
70271;SHT31;57680;54.292;18.598;2024-01-30T01:47:16;-0.26;96.76
70271;SHT31;57680;54.292;18.598;2024-01-30T01:49:41;-0.27;96.71
70271;SHT31;57680;54.292;18.598;2024-01-30T01:52:07;-0.30;96.73
70271;SHT31;57680;54.292;18.598;2024-01-30T01:54:32;-0.27;96.78
70271;SHT31;57680;54.292;18.598;2024-01-30T01:56:58;-0.29;96.82
70271;SHT31;57680;54.292;18.598;2024-01-30T01:59:24;-0.27;96.95
70271;SHT31;57680;54.292;18.598;2024-01-30T02:01:51;-0.30;96.97
70271;SHT31;57680;54.292;18.598;2024-01-30T02:04:17;-0.29;97.04
70271;SHT31;57680;54.292;18.598;2024-01-30T02:06:43;-0.29;96.99
70271;SHT31;57680;54.292;18.598;2024-01-30T02:09:08;-0.26;97.11
70271;SHT31;57680;54.292;18.598;2024-01-30T02:11:34;-0.29;97.10
70271;SHT31;57680;54.292;18.598;2024-01-30T02:14:03;-0.34;97.00
70271;SHT31;57680;54.292;18.598;2024-01-30T02:16:28;-0.38;97.13
70271;SHT31;57680;54.292;18.598;2024-01-30T02:18:54;-0.43;96.95
70271;SHT31;57680;54.292;18.598;2024-01-30T02:21:19;-0.44;97.19
70271;SHT31;57680;54.292;18.598;2024-01-30T02:23:46;-0.47;97.27
70271;SHT31;57680;54.292;18.598;2024-01-30T02:26:12;-0.49;97.29
70271;SHT31;57680;54.292;18.598;2024-01-30T02:28:37;-0.58;96.95
70271;SHT31;57680;54.292;18.598;2024-01-30T02:31:03;-0.57;97.14
70271;SHT31;57680;54.292;18.598;2024-01-30T02:33:28;-0.56;97.48
70271;SHT31;57680;54.292;18.598;2024-01-30T02:35:53;-0.54;97.50
70271;SHT31;57680;54.292;18.598;2024-01-30T02:38:19;-0.54;97.49
70271;SHT31;57680;54.292;18.598;2024-01-30T02:40:44;-0.51;97.64
70271;SHT31;57680;54.292;18.598;2024-01-30T02:43:09;-0.47;97.51
70271;SHT31;57680;54.292;18.598;2024-01-30T02:45:35;-0.45;97.58
70271;SHT31;57680;54.292;18.598;2024-01-30T02:48:00;-0.49;97.48
70271;SHT31;57680;54.292;18.598;2024-01-30T02:50:25;-0.49;97.20
70271;SHT31;57680;54.292;18.598;2024-01-30T02:52:50;-0.51;97.45
70271;SHT31;57680;54.292;18.598;2024-01-30T02:55:16;-0.53;97.19
70271;SHT31;57680;54.292;18.598;2024-01-30T02:57:41;-0.53;97.26
70271;SHT31;57680;54.292;18.598;2024-01-30T03:00:07;-0.51;97.62
70271;SHT31;57680;54.292;18.598;2024-01-30T03:02:32;-0.49;97.69
70271;SHT31;57680;54.292;18.598;2024-01-30T03:04:59;-0.45;97.99
70271;SHT31;57680;54.292;18.598;2024-01-30T03:07:24;-0.40;98.23
70271;SHT31;57680;54.292;18.598;2024-01-30T03:09:49;-0.38;97.99
70271;SHT31;57680;54.292;18.598;2024-01-30T03:12:15;-0.40;97.86
70271;SHT31;57680;54.292;18.598;2024-01-30T03:14:40;-0.38;97.94
70271;SHT31;57680;54.292;18.598;2024-01-30T03:17:05;-0.38;97.79
70271;SHT31;57680;54.292;18.598;2024-01-30T03:19:31;-0.40;97.71
70271;SHT31;57680;54.292;18.598;2024-01-30T03:21:56;-0.40;97.89
70271;SHT31;57680;54.292;18.598;2024-01-30T03:24:21;-0.41;97.76
70271;SHT31;57680;54.292;18.598;2024-01-30T03:26:47;-0.44;97.69
70271;SHT31;57680;54.292;18.598;2024-01-30T03:29:12;-0.50;97.64
70271;SHT31;57680;54.292;18.598;2024-01-30T03:31:38;-0.56;97.68
70271;SHT31;57680;54.292;18.598;2024-01-30T03:34:04;-0.57;97.77
70271;SHT31;57680;54.292;18.598;2024-01-30T03:36:29;-0.60;97.79
70271;SHT31;57680;54.292;18.598;2024-01-30T03:38:54;-0.62;97.93
70271;SHT31;57680;54.292;18.598;2024-01-30T03:41:20;-0.60;98.17
70271;SHT31;57680;54.292;18.598;2024-01-30T03:43:46;-0.60;98.18
70271;SHT31;57680;54.292;18.598;2024-01-30T03:46:12;-0.58;98.20
70271;SHT31;57680;54.292;18.598;2024-01-30T03:48:37;-0.54;98.18
70271;SHT31;57680;54.292;18.598;2024-01-30T03:51:03;-0.60;97.86
70271;SHT31;57680;54.292;18.598;2024-01-30T03:53:28;-0.65;97.90
70271;SHT31;57680;54.292;18.598;2024-01-30T03:55:54;-0.65;97.98
70271;SHT31;57680;54.292;18.598;2024-01-30T03:58:19;-0.68;98.03
70271;SHT31;57680;54.292;18.598;2024-01-30T04:00:44;-0.68;98.10
70271;SHT31;57680;54.292;18.598;2024-01-30T04:03:09;-0.72;98.16
70271;SHT31;57680;54.292;18.598;2024-01-30T04:05:35;-0.74;97.92
70271;SHT31;57680;54.292;18.598;2024-01-30T04:08:00;-0.74;98.21
70271;SHT31;57680;54.292;18.598;2024-01-30T04:10:25;-0.78;98.19
70271;SHT31;57680;54.292;18.598;2024-01-30T04:12:51;-0.80;98.32
70271;SHT31;57680;54.292;18.598;2024-01-30T04:15:17;-0.82;98.34
70271;SHT31;57680;54.292;18.598;2024-01-30T04:17:42;-0.87;98.42
70271;SHT31;57680;54.292;18.598;2024-01-30T04:20:12;-0.89;98.21
70271;SHT31;57680;54.292;18.598;2024-01-30T04:22:38;-0.93;98.27
70271;SHT31;57680;54.292;18.598;2024-01-30T04:25:03;-1.03;98.02
70271;SHT31;57680;54.292;18.598;2024-01-30T04:27:29;-1.06;98.17
70271;SHT31;57680;54.292;18.598;2024-01-30T04:29:54;-1.08;98.38
70271;SHT31;57680;54.292;18.598;2024-01-30T04:32:19;-1.13;97.95
70271;SHT31;57680;54.292;18.598;2024-01-30T04:34:45;-1.19;98.12
70271;SHT31;57680;54.292;18.598;2024-01-30T04:37:10;-1.16;98.86
70271;SHT31;57680;54.292;18.598;2024-01-30T04:39:35;-1.16;98.67
70271;SHT31;57680;54.292;18.598;2024-01-30T04:42:01;-1.15;98.65
70271;SHT31;57680;54.292;18.598;2024-01-30T04:44:26;-1.15;98.76
70271;SHT31;57680;54.292;18.598;2024-01-30T04:46:51;-1.13;98.83
70271;SHT31;57680;54.292;18.598;2024-01-30T04:49:17;-1.15;98.82
70271;SHT31;57680;54.292;18.598;2024-01-30T04:51:42;-1.13;98.97
70271;SHT31;57680;54.292;18.598;2024-01-30T04:54:08;-1.11;98.84
70271;SHT31;57680;54.292;18.598;2024-01-30T04:56:33;-1.08;99.04
70271;SHT31;57680;54.292;18.598;2024-01-30T04:58:58;-1.06;98.98
70271;SHT31;57680;54.292;18.598;2024-01-30T05:01:24;-1.03;99.09
70271;SHT31;57680;54.292;18.598;2024-01-30T05:03:49;-1.08;98.89
70271;SHT31;57680;54.292;18.598;2024-01-30T05:06:24;-1.11;98.76
70271;SHT31;57680;54.292;18.598;2024-01-30T05:08:49;-1.12;98.95
70271;SHT31;57680;54.292;18.598;2024-01-30T05:11:14;-1.12;99.07
70271;SHT31;57680;54.292;18.598;2024-01-30T05:13:40;-1.06;99.06
70271;SHT31;57680;54.292;18.598;2024-01-30T05:16:05;-1.09;99.20
70271;SHT31;57680;54.292;18.598;2024-01-30T05:18:30;-1.09;99.14
70271;SHT31;57680;54.292;18.598;2024-01-30T05:20:56;-1.06;99.25
70271;SHT31;57680;54.292;18.598;2024-01-30T05:23:21;-1.08;99.24
70271;SHT31;57680;54.292;18.598;2024-01-30T05:25:46;-1.03;99.38
70271;SHT31;57680;54.292;18.598;2024-01-30T05:28:12;-1.02;99.28
70271;SHT31;57680;54.292;18.598;2024-01-30T05:30:37;-0.98;99.25
70271;SHT31;57680;54.292;18.598;2024-01-30T05:33:03;-1.01;99.28
70271;SHT31;57680;54.292;18.598;2024-01-30T05:35:28;-0.96;99.44
70271;SHT31;57680;54.292;18.598;2024-01-30T05:37:54;-0.89;99.52
70271;SHT31;57680;54.292;18.598;2024-01-30T05:40:19;-0.84;99.47
70271;SHT31;57680;54.292;18.598;2024-01-30T05:42:44;-0.80;99.43
70271;SHT31;57680;54.292;18.598;2024-01-30T05:45:09;-0.82;99.34
70271;SHT31;57680;54.292;18.598;2024-01-30T05:47:35;-0.81;99.11
70271;SHT31;57680;54.292;18.598;2024-01-30T05:50:00;-0.84;99.12
70271;SHT31;57680;54.292;18.598;2024-01-30T05:52:25;-0.82;99.08
70271;SHT31;57680;54.292;18.598;2024-01-30T05:54:51;-0.82;99.13
70271;SHT31;57680;54.292;18.598;2024-01-30T05:57:16;-0.84;99.03
70271;SHT31;57680;54.292;18.598;2024-01-30T05:59:41;-0.85;98.99
70271;SHT31;57680;54.292;18.598;2024-01-30T06:02:07;-0.87;98.94
70271;SHT31;57680;54.292;18.598;2024-01-30T06:04:32;-0.85;98.94
70271;SHT31;57680;54.292;18.598;2024-01-30T06:06:57;-0.88;98.90
70271;SHT31;57680;54.292;18.598;2024-01-30T06:09:23;-0.88;98.91
70271;SHT31;57680;54.292;18.598;2024-01-30T06:11:48;-0.91;98.93
70271;SHT31;57680;54.292;18.598;2024-01-30T06:14:13;-0.92;98.93
70271;SHT31;57680;54.292;18.598;2024-01-30T06:16:38;-0.93;98.92
70271;SHT31;57680;54.292;18.598;2024-01-30T06:19:04;-0.91;99.06
70271;SHT31;57680;54.292;18.598;2024-01-30T06:21:29;-0.91;99.02
70271;SHT31;57680;54.292;18.598;2024-01-30T06:23:54;-0.92;98.92
70271;SHT31;57680;54.292;18.598;2024-01-30T06:26:20;-0.91;99.03
70271;SHT31;57680;54.292;18.598;2024-01-30T06:28:45;-0.88;99.12
70271;SHT31;57680;54.292;18.598;2024-01-30T06:31:10;-0.82;99.33
70271;SHT31;57680;54.292;18.598;2024-01-30T06:33:35;-0.74;98.98
70271;SHT31;57680;54.292;18.598;2024-01-30T06:36:01;-0.74;98.71
70271;SHT31;57680;54.292;18.598;2024-01-30T06:38:26;-0.71;98.77
70271;SHT31;57680;54.292;18.598;2024-01-30T06:40:51;-0.81;97.66
70271;SHT31;57680;54.292;18.598;2024-01-30T06:43:17;-0.81;97.97
70271;SHT31;57680;54.292;18.598;2024-01-30T06:45:42;-0.87;97.54
70271;SHT31;57680;54.292;18.598;2024-01-30T06:48:07;-0.81;98.27
70271;SHT31;57680;54.292;18.598;2024-01-30T06:50:33;-0.70;98.57
70271;SHT31;57680;54.292;18.598;2024-01-30T06:52:58;-0.58;98.75
70271;SHT31;57680;54.292;18.598;2024-01-30T06:55:23;-0.47;98.66
70271;SHT31;57680;54.292;18.598;2024-01-30T06:57:48;-0.41;98.23
70271;SHT31;57680;54.292;18.598;2024-01-30T07:00:14;-0.37;97.83
70271;SHT31;57680;54.292;18.598;2024-01-30T07:02:40;-0.37;97.63
70271;SHT31;57680;54.292;18.598;2024-01-30T07:05:05;-0.36;97.54
70271;SHT31;57680;54.292;18.598;2024-01-30T07:07:30;-0.33;97.50
70271;SHT31;57680;54.292;18.598;2024-01-30T07:09:56;-0.26;97.55
70271;SHT31;57680;54.292;18.598;2024-01-30T07:12:21;-0.21;97.38
70271;SHT31;57680;54.292;18.598;2024-01-30T07:14:47;-0.14;97.35
70271;SHT31;57680;54.292;18.598;2024-01-30T07:17:12;-0.06;97.05
70271;SHT31;57680;54.292;18.598;2024-01-30T07:19:37;-0.05;96.98
70271;SHT31;57680;54.292;18.598;2024-01-30T07:22:03;0.04;96.84
70271;SHT31;57680;54.292;18.598;2024-01-30T07:24:28;0.17;96.63
70271;SHT31;57680;54.292;18.598;2024-01-30T07:26:53;0.24;96.58
70271;SHT31;57680;54.292;18.598;2024-01-30T07:29:18;0.29;96.38
70271;SHT31;57680;54.292;18.598;2024-01-30T07:31:44;0.38;96.15
70271;SHT31;57680;54.292;18.598;2024-01-30T07:34:09;0.46;95.84
70271;SHT31;57680;54.292;18.598;2024-01-30T07:36:34;0.55;95.66
70271;SHT31;57680;54.292;18.598;2024-01-30T07:39:00;0.63;95.35
70271;SHT31;57680;54.292;18.598;2024-01-30T07:41:25;0.69;95.02
70271;SHT31;57680;54.292;18.598;2024-01-30T07:43:50;0.77;94.67
70271;SHT31;57680;54.292;18.598;2024-01-30T07:46:16;0.81;94.37
70271;SHT31;57680;54.292;18.598;2024-01-30T07:48:41;0.84;94.16
70271;SHT31;57680;54.292;18.598;2024-01-30T07:51:07;0.94;93.89
70271;SHT31;57680;54.292;18.598;2024-01-30T07:53:32;0.94;93.76
70271;SHT31;57680;54.292;18.598;2024-01-30T07:55:57;0.97;93.55
70271;SHT31;57680;54.292;18.598;2024-01-30T07:58:22;0.99;93.45
70271;SHT31;57680;54.292;18.598;2024-01-30T08:00:48;1.05;93.35
70271;SHT31;57680;54.292;18.598;2024-01-30T08:03:13;1.05;93.13
70271;SHT31;57680;54.292;18.598;2024-01-30T08:05:38;1.10;92.94
70271;SHT31;57680;54.292;18.598;2024-01-30T08:08:04;1.14;92.83
70271;SHT31;57680;54.292;18.598;2024-01-30T08:10:29;1.17;92.75
70271;SHT31;57680;54.292;18.598;2024-01-30T08:12:54;1.23;92.65
70271;SHT31;57680;54.292;18.598;2024-01-30T08:15:20;1.23;92.49
70271;SHT31;57680;54.292;18.598;2024-01-30T08:17:45;1.24;92.37
70271;SHT31;57680;54.292;18.598;2024-01-30T08:20:10;1.34;92.56
70271;SHT31;57680;54.292;18.598;2024-01-30T08:22:38;1.37;92.24
70271;SHT31;57680;54.292;18.598;2024-01-30T08:25:04;1.32;91.96
70271;SHT31;57680;54.292;18.598;2024-01-30T08:27:29;1.38;91.97
70271;SHT31;57680;54.292;18.598;2024-01-30T08:29:55;1.42;91.88
70271;SHT31;57680;54.292;18.598;2024-01-30T08:32:32;1.50;91.78
70271;SHT31;57680;54.292;18.598;2024-01-30T08:34:58;1.62;91.64
70271;SHT31;57680;54.292;18.598;2024-01-30T08:37:23;1.78;91.41
70271;SHT31;57680;54.292;18.598;2024-01-30T08:39:48;1.93;91.29
70271;SHT31;57680;54.292;18.598;2024-01-30T08:42:14;2.07;90.93
70271;SHT31;57680;54.292;18.598;2024-01-30T08:44:39;2.29;91.02
70271;SHT31;57680;54.292;18.598;2024-01-30T08:47:05;2.48;90.59
70271;SHT31;57680;54.292;18.598;2024-01-30T08:49:30;2.62;90.28
70271;SHT31;57680;54.292;18.598;2024-01-30T08:51:55;2.75;89.93
70271;SHT31;57680;54.292;18.598;2024-01-30T08:54:21;2.85;89.56
70271;SHT31;57680;54.292;18.598;2024-01-30T08:56:46;2.95;89.18
70271;SHT31;57680;54.292;18.598;2024-01-30T08:59:11;3.06;89.03
70271;SHT31;57680;54.292;18.598;2024-01-30T09:01:36;3.16;89.32
70271;SHT31;57680;54.292;18.598;2024-01-30T09:04:02;3.37;89.46
70271;SHT31;57680;54.292;18.598;2024-01-30T09:06:27;3.54;88.20
70271;SHT31;57680;54.292;18.598;2024-01-30T09:08:52;3.71;87.67
70271;SHT31;57680;54.292;18.598;2024-01-30T09:11:18;3.78;86.79
70271;SHT31;57680;54.292;18.598;2024-01-30T09:13:43;3.82;86.30
70271;SHT31;57680;54.292;18.598;2024-01-30T09:16:08;3.82;86.07
70271;SHT31;57680;54.292;18.598;2024-01-30T09:18:34;3.84;85.83
70271;SHT31;57680;54.292;18.598;2024-01-30T09:20:59;3.85;85.79
70271;SHT31;57680;54.292;18.598;2024-01-30T09:23:26;3.88;85.56
70271;SHT31;57680;54.292;18.598;2024-01-30T09:25:52;3.91;85.33
70271;SHT31;57680;54.292;18.598;2024-01-30T09:28:17;3.95;84.95
70271;SHT31;57680;54.292;18.598;2024-01-30T09:30:43;3.97;85.08
70271;SHT31;57680;54.292;18.598;2024-01-30T09:33:08;3.97;85.46
70271;SHT31;57680;54.292;18.598;2024-01-30T09:35:33;3.95;85.00
70271;SHT31;57680;54.292;18.598;2024-01-30T09:37:59;3.91;85.14
70271;SHT31;57680;54.292;18.598;2024-01-30T09:40:25;3.95;85.45
70271;SHT31;57680;54.292;18.598;2024-01-30T09:42:51;3.94;85.71
70271;SHT31;57680;54.292;18.598;2024-01-30T09:45:19;3.94;85.73
70271;SHT31;57680;54.292;18.598;2024-01-30T09:47:45;3.94;85.05
70271;SHT31;57680;54.292;18.598;2024-01-30T09:50:12;4.03;85.29
70271;SHT31;57680;54.292;18.598;2024-01-30T09:52:38;4.03;85.27
70271;SHT31;57680;54.292;18.598;2024-01-30T09:55:03;4.12;85.18
70271;SHT31;57680;54.292;18.598;2024-01-30T09:57:29;4.12;84.76
70271;SHT31;57680;54.292;18.598;2024-01-30T09:59:54;4.21;84.75
70271;SHT31;57680;54.292;18.598;2024-01-30T10:02:20;4.33;84.67
70271;SHT31;57680;54.292;18.598;2024-01-30T10:04:49;4.43;84.22
70271;SHT31;57680;54.292;18.598;2024-01-30T10:07:15;4.54;84.02
70271;SHT31;57680;54.292;18.598;2024-01-30T10:09:41;4.76;84.15
70271;SHT31;57680;54.292;18.598;2024-01-30T10:12:06;5.08;84.95
70271;SHT31;57680;54.292;18.598;2024-01-30T10:14:32;5.25;82.37
70271;SHT31;57680;54.292;18.598;2024-01-30T10:16:58;5.48;82.14
70271;SHT31;57680;54.292;18.598;2024-01-30T10:19:23;5.51;81.26
70271;SHT31;57680;54.292;18.598;2024-01-30T10:21:48;5.69;81.32
70271;SHT31;57680;54.292;18.598;2024-01-30T10:24:14;5.73;80.05
70271;SHT31;57680;54.292;18.598;2024-01-30T10:26:39;5.85;80.16
70271;SHT31;57680;54.292;18.598;2024-01-30T10:29:05;6.00;80.08
70271;SHT31;57680;54.292;18.598;2024-01-30T10:31:30;6.18;80.58
70271;SHT31;57680;54.292;18.598;2024-01-30T10:33:56;6.23;80.36
70271;SHT31;57680;54.292;18.598;2024-01-30T10:36:28;6.28;79.89
70271;SHT31;57680;54.292;18.598;2024-01-30T10:38:55;6.30;79.54
70271;SHT31;57680;54.292;18.598;2024-01-30T10:41:27;6.31;78.60
70271;SHT31;57680;54.292;18.598;2024-01-30T10:44:02;6.42;78.72
70271;SHT31;57680;54.292;18.598;2024-01-30T10:46:30;6.52;78.38
70271;SHT31;57680;54.292;18.598;2024-01-30T10:49:00;6.58;77.79
70271;SHT31;57680;54.292;18.598;2024-01-30T10:51:29;6.62;77.01
70271;SHT31;57680;54.292;18.598;2024-01-30T10:53:56;6.73;76.93
70271;SHT31;57680;54.292;18.598;2024-01-30T10:56:22;6.83;76.81
70271;SHT31;57680;54.292;18.598;2024-01-30T10:58:54;6.83;76.82
70271;SHT31;57680;54.292;18.598;2024-01-30T11:01:23;6.86;76.78
70271;SHT31;57680;54.292;18.598;2024-01-30T11:03:52;6.97;76.34
70271;SHT31;57680;54.292;18.598;2024-01-30T11:06:18;6.99;75.88
70271;SHT31;57680;54.292;18.598;2024-01-30T11:08:44;7.04;76.00
70271;SHT31;57680;54.292;18.598;2024-01-30T11:11:10;7.04;75.74
70271;SHT31;57680;54.292;18.598;2024-01-30T11:13:35;7.13;75.59
70271;SHT31;57680;54.292;18.598;2024-01-30T11:16:02;7.17;75.61
70271;SHT31;57680;54.292;18.598;2024-01-30T11:18:33;7.23;76.19
70271;SHT31;57680;54.292;18.598;2024-01-30T11:21:01;7.20;75.84
70271;SHT31;57680;54.292;18.598;2024-01-30T11:23:30;7.22;76.11
70271;SHT31;57680;54.292;18.598;2024-01-30T11:25:56;7.22;76.06
70271;SHT31;57680;54.292;18.598;2024-01-30T11:28:22;7.20;76.00
70271;SHT31;57680;54.292;18.598;2024-01-30T11:30:48;7.19;75.89
70271;SHT31;57680;54.292;18.598;2024-01-30T11:33:14;7.24;76.19
70271;SHT31;57680;54.292;18.598;2024-01-30T11:35:44;7.27;76.00
70271;SHT31;57680;54.292;18.598;2024-01-30T11:38:14;7.28;75.70
70271;SHT31;57680;54.292;18.598;2024-01-30T11:40:41;7.28;75.38
70271;SHT31;57680;54.292;18.598;2024-01-30T11:43:07;7.34;75.57
70271;SHT31;57680;54.292;18.598;2024-01-30T11:45:34;7.40;75.14
70271;SHT31;57680;54.292;18.598;2024-01-30T11:48:00;7.40;74.88
70271;SHT31;57680;54.292;18.598;2024-01-30T11:50:26;7.43;75.08
70271;SHT31;57680;54.292;18.598;2024-01-30T11:52:51;7.40;75.11
70271;SHT31;57680;54.292;18.598;2024-01-30T11:55:16;7.44;75.80
70271;SHT31;57680;54.292;18.598;2024-01-30T11:57:42;7.40;75.56
70271;SHT31;57680;54.292;18.598;2024-01-30T12:00:18;7.37;75.16
70271;SHT31;57680;54.292;18.598;2024-01-30T12:02:44;7.34;75.52
70271;SHT31;57680;54.292;18.598;2024-01-30T12:05:13;7.28;75.69
70271;SHT31;57680;54.292;18.598;2024-01-30T12:07:39;7.26;75.52
70271;SHT31;57680;54.292;18.598;2024-01-30T12:10:04;7.23;75.87
70271;SHT31;57680;54.292;18.598;2024-01-30T12:12:30;7.22;75.81
70271;SHT31;57680;54.292;18.598;2024-01-30T12:14:55;7.19;76.16
70271;SHT31;57680;54.292;18.598;2024-01-30T12:17:32;7.20;76.26
70271;SHT31;57680;54.292;18.598;2024-01-30T12:20:08;7.23;76.50
70271;SHT31;57680;54.292;18.598;2024-01-30T12:22:36;7.28;76.15
70271;SHT31;57680;54.292;18.598;2024-01-30T12:25:04;7.34;76.30
70271;SHT31;57680;54.292;18.598;2024-01-30T12:27:29;7.42;76.32
70271;SHT31;57680;54.292;18.598;2024-01-30T12:29:57;7.47;76.32
70271;SHT31;57680;54.292;18.598;2024-01-30T12:32:23;7.47;76.15
70271;SHT31;57680;54.292;18.598;2024-01-30T12:34:48;7.51;76.03
70271;SHT31;57680;54.292;18.598;2024-01-30T12:37:14;7.54;76.36
70271;SHT31;57680;54.292;18.598;2024-01-30T12:39:40;7.55;75.91
70271;SHT31;57680;54.292;18.598;2024-01-30T12:42:05;7.61;76.35
70271;SHT31;57680;54.292;18.598;2024-01-30T12:44:31;7.60;75.90
70271;SHT31;57680;54.292;18.598;2024-01-30T12:46:56;7.54;76.08
70271;SHT31;57680;54.292;18.598;2024-01-30T12:49:21;7.48;76.24
70271;SHT31;57680;54.292;18.598;2024-01-30T12:51:47;7.46;76.28
70271;SHT31;57680;54.292;18.598;2024-01-30T13:17:55;7.48;75.97
70271;SHT31;57680;54.292;18.598;2024-01-30T13:20:20;7.43;75.89
70271;SHT31;57680;54.292;18.598;2024-01-30T13:22:47;7.31;75.92
70271;SHT31;57680;54.292;18.598;2024-01-30T13:25:13;7.20;76.65
70271;SHT31;57680;54.292;18.598;2024-01-30T13:27:38;7.10;76.73
70271;SHT31;57680;54.292;18.598;2024-01-30T13:30:04;7.00;77.05
70271;SHT31;57680;54.292;18.598;2024-01-30T13:32:30;6.91;77.39
70271;SHT31;57680;54.292;18.598;2024-01-30T13:34:56;6.81;77.74
70271;SHT31;57680;54.292;18.598;2024-01-30T13:37:22;6.72;77.78
70271;SHT31;57680;54.292;18.598;2024-01-30T13:39:48;6.61;78.09
70271;SHT31;57680;54.292;18.598;2024-01-30T13:42:14;6.46;78.47
70271;SHT31;57680;54.292;18.598;2024-01-30T13:44:39;6.34;78.81
70271;SHT31;57680;54.292;18.598;2024-01-30T13:47:05;6.25;79.41
70271;SHT31;57680;54.292;18.598;2024-01-30T13:49:30;6.18;79.59
70271;SHT31;57680;54.292;18.598;2024-01-30T13:51:55;6.10;79.75
70271;SHT31;57680;54.292;18.598;2024-01-30T13:54:21;6.03;80.07
70271;SHT31;57680;54.292;18.598;2024-01-30T13:56:46;5.96;80.07
70271;SHT31;57680;54.292;18.598;2024-01-30T13:59:11;5.89;80.12
70271;SHT31;57680;54.292;18.598;2024-01-30T14:09:59;5.65;78.65
70271;SHT31;57680;54.292;18.598;2024-01-30T14:12:24;5.62;78.96
70271;SHT31;57680;54.292;18.598;2024-01-30T14:17:02;5.52;79.52
70271;SHT31;57680;54.292;18.598;2024-01-30T14:19:28;5.45;79.93
70271;SHT31;57680;54.292;18.598;2024-01-30T14:21:53;5.39;79.60
70271;SHT31;57680;54.292;18.598;2024-01-30T14:24:18;5.30;79.73
70271;SHT31;57680;54.292;18.598;2024-01-30T14:26:44;5.27;80.07
70271;SHT31;57680;54.292;18.598;2024-01-30T14:29:10;5.21;80.49
70271;SHT31;57680;54.292;18.598;2024-01-30T14:31:35;5.12;80.81
70271;SHT31;57680;54.292;18.598;2024-01-30T14:34:00;5.05;81.10
70271;SHT31;57680;54.292;18.598;2024-01-30T14:36:26;5.01;81.42
70271;SHT31;57680;54.292;18.598;2024-01-30T14:38:52;5.00;81.67
70271;SHT31;57680;54.292;18.598;2024-01-30T14:41:17;4.91;82.13
70271;SHT31;57680;54.292;18.598;2024-01-30T14:43:42;4.83;82.56
70271;SHT31;57680;54.292;18.598;2024-01-30T14:46:08;4.67;83.12
70271;SHT31;57680;54.292;18.598;2024-01-30T14:48:33;4.56;83.60
70271;SHT31;57680;54.292;18.598;2024-01-30T14:50:59;4.45;83.72
70271;SHT31;57680;54.292;18.598;2024-01-30T14:53:24;4.33;83.99
70271;SHT31;57680;54.292;18.598;2024-01-30T14:55:49;4.28;85.01
70271;SHT31;57680;54.292;18.598;2024-01-30T14:58:15;4.15;84.67
70271;SHT31;57680;54.292;18.598;2024-01-30T15:00:40;4.05;84.70
70271;SHT31;57680;54.292;18.598;2024-01-30T15:03:05;3.97;85.06
70271;SHT31;57680;54.292;18.598;2024-01-30T15:05:31;3.87;85.24
70271;SHT31;57680;54.292;18.598;2024-01-30T15:07:56;3.78;85.48
70271;SHT31;57680;54.292;18.598;2024-01-30T15:10:22;3.70;85.73
70271;SHT31;57680;54.292;18.598;2024-01-30T15:12:47;3.61;86.17
70271;SHT31;57680;54.292;18.598;2024-01-30T15:15:13;3.56;86.40
70271;SHT31;57680;54.292;18.598;2024-01-30T15:17:38;3.50;86.63
70271;SHT31;57680;54.292;18.598;2024-01-30T15:20:04;3.40;86.82
70271;SHT31;57680;54.292;18.598;2024-01-30T15:22:29;3.34;86.87
70271;SHT31;57680;54.292;18.598;2024-01-30T15:24:55;3.32;87.12
70271;SHT31;57680;54.292;18.598;2024-01-30T15:27:20;3.24;87.16
70271;SHT31;57680;54.292;18.598;2024-01-30T15:29:46;3.19;87.53
70271;SHT31;57680;54.292;18.598;2024-01-30T15:32:11;3.13;87.64
70271;SHT31;57680;54.292;18.598;2024-01-30T15:34:37;3.08;87.92
70271;SHT31;57680;54.292;18.598;2024-01-30T15:37:02;3.06;88.05
70271;SHT31;57680;54.292;18.598;2024-01-30T15:39:28;3.02;88.24
70271;SHT31;57680;54.292;18.598;2024-01-30T15:41:53;2.99;88.29
70271;SHT31;57680;54.292;18.598;2024-01-30T15:44:18;2.98;88.27
70271;SHT31;57680;54.292;18.598;2024-01-30T15:46:44;2.98;88.58
70271;SHT31;57680;54.292;18.598;2024-01-30T15:49:09;2.96;88.53